createdAt,value
2019-02-28T00:01:56.387Z,8.60
2019-02-28T00:04:25.532Z,8.60
2019-02-28T00:06:55.695Z,8.50
2019-02-28T00:09:25.707Z,8.50
2019-02-28T00:11:55.675Z,8.40
2019-02-28T00:14:27.777Z,8.40
2019-02-28T00:16:59.202Z,8.40
2019-02-28T00:19:30.399Z,8.30
2019-02-28T00:22:00.408Z,8.30
2019-02-28T00:24:31.776Z,8.30
2019-02-28T00:27:01.531Z,8.30
2019-02-28T00:29:33.710Z,8.30
2019-02-28T00:32:02.544Z,8.20
2019-02-28T00:34:32.410Z,8.20
2019-02-28T00:37:04.640Z,8.20
2019-02-28T00:39:34.812Z,8.30
2019-02-28T00:42:05.838Z,8.30
2019-02-28T00:44:35.092Z,8.40
2019-02-28T00:47:04.229Z,8.50
2019-02-28T00:49:33.362Z,8.60
2019-02-28T00:52:02.921Z,8.70
2019-02-28T00:54:34.017Z,8.80
2019-02-28T00:57:04.085Z,8.90
2019-02-28T00:59:33.299Z,9.00
2019-02-28T01:02:03.331Z,9.10
2019-02-28T01:04:32.563Z,9.20
2019-02-28T01:07:06.080Z,9.30
2019-02-28T01:09:35.236Z,9.30
2019-02-28T01:12:05.449Z,9.30
2019-02-28T01:14:36.655Z,9.40
2019-02-28T01:17:07.044Z,9.40
2019-02-28T01:19:53.966Z,9.50
2019-02-28T01:22:23.111Z,9.50
2019-02-28T01:24:56.417Z,9.60
2019-02-28T01:27:25.715Z,9.70
2019-02-28T01:29:54.868Z,9.70
2019-02-28T01:32:24.376Z,9.80
2019-02-28T01:34:53.947Z,9.80
2019-02-28T01:37:28.158Z,9.80
2019-02-28T01:40:01.038Z,9.80
2019-02-28T01:42:29.572Z,9.80
2019-02-28T01:45:16.576Z,9.80
2019-02-28T01:47:45.714Z,9.90
2019-02-28T01:50:14.882Z,9.80
2019-02-28T01:52:45.861Z,9.90
2019-02-28T01:55:15.225Z,9.90
2019-02-28T01:57:44.487Z,9.90
2019-02-28T02:00:16.129Z,9.90
2019-02-28T02:02:45.371Z,9.90
2019-02-28T02:05:17.299Z,9.90
2019-02-28T02:07:49.590Z,9.90
2019-02-28T02:10:23.423Z,9.80
2019-02-28T02:12:52.576Z,9.80
2019-02-28T02:15:21.723Z,9.80
2019-02-28T02:17:50.871Z,9.80
2019-02-28T02:20:20.022Z,9.70
2019-02-28T02:22:49.474Z,9.70
2019-02-28T02:25:18.652Z,9.70
2019-02-28T02:27:52.819Z,9.70
2019-02-28T02:30:22.841Z,9.60
2019-02-28T02:32:53.293Z,9.60
2019-02-28T02:35:22.479Z,9.50
2019-02-28T02:37:51.687Z,9.50
2019-02-28T02:40:23.082Z,9.40
2019-02-28T02:42:54.153Z,9.40
2019-02-28T02:45:23.302Z,9.30
2019-02-28T02:47:53.368Z,9.30
2019-02-28T02:50:23.316Z,9.20
2019-02-28T02:52:52.531Z,9.20
2019-02-28T02:55:27.912Z,9.10
2019-02-28T02:57:52.525Z,9.10
2019-02-28T03:00:21.666Z,9.10
2019-02-28T03:02:50.880Z,9.00
2019-02-28T03:05:20.094Z,9.00
2019-02-28T03:07:49.250Z,9.00
2019-02-28T03:10:19.700Z,8.90
2019-02-28T03:12:49.744Z,8.90
2019-02-28T03:15:24.800Z,8.90
2019-02-28T03:17:50.889Z,8.90
2019-02-28T03:20:20.070Z,8.80
2019-02-28T03:22:49.965Z,8.80
2019-02-28T03:25:27.442Z,8.80
2019-02-28T03:27:56.380Z,8.70
2019-02-28T03:30:29.379Z,8.70
2019-02-28T03:32:53.450Z,8.70
2019-02-28T03:35:22.603Z,8.60
2019-02-28T03:37:51.832Z,8.60
2019-02-28T03:40:20.968Z,8.60
2019-02-28T03:42:51.798Z,8.50
2019-02-28T03:45:20.999Z,8.50
2019-02-28T03:47:50.205Z,8.50
2019-02-28T03:50:21.980Z,8.40
2019-02-28T03:52:50.548Z,8.40
2019-02-28T03:55:19.705Z,8.40
2019-02-28T03:57:48.839Z,8.40
2019-02-28T04:00:23.227Z,8.30
2019-02-28T04:02:57.067Z,8.30
2019-02-28T04:05:27.965Z,8.30
2019-02-28T04:07:57.171Z,8.30
2019-02-28T04:10:27.519Z,8.30
2019-02-28T04:12:58.288Z,8.30
2019-02-28T04:15:30.432Z,8.20
2019-02-28T04:18:06.856Z,8.20
2019-02-28T04:20:36.085Z,8.20
2019-02-28T04:23:01.345Z,8.20
2019-02-28T04:25:31.835Z,8.20
2019-02-28T04:28:01.064Z,8.20
2019-02-28T04:30:31.934Z,8.20
2019-02-28T04:33:01.697Z,8.20
2019-02-28T04:35:34.542Z,8.10
2019-02-28T04:38:04.736Z,8.20
2019-02-28T04:40:34.022Z,8.20
2019-02-28T04:43:03.199Z,8.10
2019-02-28T04:45:33.663Z,8.10
2019-02-28T04:48:02.904Z,8.10
2019-02-28T04:50:34.400Z,8.10
2019-02-28T04:53:03.590Z,8.00
2019-02-28T04:55:34.220Z,8.00
2019-02-28T04:58:04.773Z,8.00
2019-02-28T05:00:34.258Z,8.00
2019-02-28T05:03:04.229Z,8.00
2019-02-28T05:05:34.276Z,7.90
2019-02-28T05:08:05.813Z,7.90
2019-02-28T05:10:35.440Z,7.80
2019-02-28T05:13:04.594Z,7.80
2019-02-28T05:15:37.314Z,7.80
2019-02-28T05:18:04.582Z,7.80
2019-02-28T05:20:33.733Z,7.80
2019-02-28T05:23:04.221Z,7.70
2019-02-28T05:25:33.389Z,7.70
2019-02-28T05:28:02.676Z,7.70
2019-02-28T05:30:31.895Z,7.70
2019-02-28T05:33:01.034Z,7.60
2019-02-28T05:35:30.178Z,7.60
2019-02-28T05:37:59.318Z,7.70
2019-02-28T05:40:28.493Z,7.60
2019-02-28T05:42:59.233Z,7.60
2019-02-28T05:45:29.615Z,7.60
2019-02-28T05:47:58.817Z,7.60
2019-02-28T05:50:27.947Z,7.50
2019-02-28T05:52:57.094Z,7.60
2019-02-28T05:55:26.249Z,7.50
2019-02-28T05:57:55.403Z,7.50
2019-02-28T06:00:25.578Z,7.50
2019-02-28T06:03:02.598Z,7.50
2019-02-28T06:05:32.417Z,7.50
2019-02-28T06:08:03.546Z,7.40
2019-02-28T06:10:34.025Z,7.40
2019-02-28T06:13:03.160Z,7.40
2019-02-28T06:15:34.189Z,7.30
2019-02-28T06:18:03.169Z,7.30
2019-02-28T06:20:32.298Z,7.30
2019-02-28T06:23:01.453Z,7.30
2019-02-28T06:25:30.686Z,7.30
2019-02-28T06:27:59.841Z,7.40
2019-02-28T06:30:29.026Z,7.30
2019-02-28T06:32:59.598Z,7.30
2019-02-28T06:35:28.923Z,7.30
2019-02-28T06:37:58.085Z,7.30
2019-02-28T06:40:32.805Z,7.30
2019-02-28T06:43:01.452Z,7.30
2019-02-28T06:45:36.654Z,7.30
2019-02-28T06:48:03.222Z,7.30
2019-02-28T06:50:32.375Z,7.30
2019-02-28T06:53:01.533Z,7.30
2019-02-28T06:55:30.661Z,7.30
2019-02-28T06:57:59.887Z,7.30
2019-02-28T07:00:29.023Z,7.30
2019-02-28T07:02:58.171Z,7.20
2019-02-28T07:05:28.423Z,7.30
2019-02-28T07:07:57.565Z,7.30
2019-02-28T07:10:26.731Z,7.20
2019-02-28T07:12:55.975Z,7.20
2019-02-28T07:15:25.185Z,7.20
2019-02-28T07:17:54.339Z,7.20
2019-02-28T07:20:23.491Z,7.30
2019-02-28T07:22:55.577Z,7.30
2019-02-28T07:25:23.547Z,7.30
2019-02-28T07:27:52.711Z,7.30
2019-02-28T07:30:21.910Z,7.30
2019-02-28T07:32:51.076Z,7.40
2019-02-28T07:35:20.278Z,7.40
2019-02-28T07:37:53.214Z,7.40
2019-02-28T07:40:20.298Z,7.40
2019-02-28T07:42:49.510Z,7.50
2019-02-28T07:45:18.676Z,7.50
2019-02-28T07:47:51.786Z,7.50
2019-02-28T07:50:18.686Z,7.60
2019-02-28T07:52:47.932Z,7.60
2019-02-28T07:55:18.807Z,7.70
2019-02-28T07:57:53.291Z,7.80
2019-02-28T08:00:25.491Z,7.80
2019-02-28T08:02:54.667Z,7.80
2019-02-28T08:05:30.083Z,7.80
2019-02-28T08:07:57.352Z,7.90
2019-02-28T08:10:32.092Z,7.90
2019-02-28T08:13:03.027Z,7.90
2019-02-28T08:15:32.154Z,8.00
2019-02-28T08:18:01.303Z,8.00
2019-02-28T08:20:34.037Z,8.10
2019-02-28T08:23:06.480Z,8.20
2019-02-28T08:25:35.650Z,8.40
2019-02-28T08:28:23.079Z,8.60
2019-02-28T08:30:55.345Z,8.60
2019-02-28T08:33:23.138Z,8.60
2019-02-28T08:35:52.688Z,8.60
2019-02-28T08:39:08.765Z,8.60
2019-02-28T08:41:36.931Z,8.60
2019-02-28T08:44:06.063Z,8.70
2019-02-28T08:46:37.146Z,8.70
2019-02-28T08:49:07.205Z,8.70
2019-02-28T08:51:36.612Z,8.80
2019-02-28T08:54:06.163Z,8.90
2019-02-28T08:56:36.452Z,8.90
2019-02-28T08:59:11.785Z,9.00
2019-02-28T09:01:40.089Z,9.10
2019-02-28T09:04:07.369Z,9.00
2019-02-28T09:06:37.900Z,9.00
2019-02-28T09:09:09.414Z,9.10
2019-02-28T09:11:38.650Z,9.20
2019-02-28T09:14:07.798Z,9.30
2019-02-28T09:16:39.703Z,9.30
2019-02-28T09:19:08.771Z,9.30
2019-02-28T09:21:37.924Z,9.40
2019-02-28T09:24:09.399Z,9.50
2019-02-28T09:26:37.990Z,9.60
2019-02-28T09:29:07.203Z,9.60
2019-02-28T09:31:39.084Z,9.60
2019-02-28T09:34:11.759Z,9.70
2019-02-28T09:36:40.977Z,9.80
2019-02-28T09:39:10.126Z,9.80
2019-02-28T09:41:40.160Z,9.90
2019-02-28T09:44:10.132Z,9.90
2019-02-28T09:46:39.278Z,10.00
2019-02-28T09:49:11.990Z,10.10
2019-02-28T09:51:39.307Z,10.20
2019-02-28T09:54:08.474Z,10.20
2019-02-28T09:56:37.695Z,10.30
2019-02-28T09:59:07.112Z,10.30
2019-02-28T10:01:37.155Z,10.40
2019-02-28T10:04:06.316Z,10.50
2019-02-28T10:06:35.532Z,10.60
2019-02-28T10:09:08.786Z,10.60
2019-02-28T10:11:36.686Z,10.70
2019-02-28T10:14:05.828Z,10.70
2019-02-28T10:16:35.017Z,10.80
2019-02-28T10:19:05.246Z,10.80
2019-02-28T10:21:36.441Z,10.90
2019-02-28T10:24:05.446Z,10.90
2019-02-28T10:26:34.594Z,10.90
2019-02-28T10:29:04.563Z,10.90
2019-02-28T10:31:38.200Z,10.90
2019-02-28T10:34:05.517Z,10.90
2019-02-28T10:36:34.767Z,11.00
2019-02-28T10:39:05.937Z,11.10
2019-02-28T10:41:36.211Z,11.10
2019-02-28T10:44:05.372Z,11.10
2019-02-28T10:46:36.033Z,11.20
2019-02-28T10:49:05.519Z,11.20
2019-02-28T10:51:35.097Z,11.20
2019-02-28T10:54:04.255Z,11.30
2019-02-28T10:56:33.794Z,11.30
2019-02-28T10:59:03.027Z,11.30
2019-02-28T11:01:32.170Z,11.40
2019-02-28T11:04:01.427Z,11.50
2019-02-28T11:06:30.584Z,11.60
2019-02-28T11:08:59.744Z,11.60
2019-02-28T11:11:28.900Z,11.60
2019-02-28T11:13:58.043Z,11.60
2019-02-28T11:16:27.207Z,11.60
2019-02-28T11:18:56.503Z,11.60
2019-02-28T11:21:26.023Z,11.60
2019-02-28T11:23:55.208Z,11.70
2019-02-28T11:26:24.411Z,11.60
2019-02-28T11:28:53.604Z,11.60
2019-02-28T11:31:22.818Z,11.60
2019-02-28T11:33:51.968Z,11.60
2019-02-28T11:36:21.147Z,11.70
2019-02-28T11:38:52.449Z,11.70
2019-02-28T11:41:21.208Z,11.70
2019-02-28T11:43:50.367Z,11.70
2019-02-28T11:46:19.618Z,11.70
2019-02-28T11:48:50.982Z,11.80
2019-02-28T11:51:19.607Z,11.90
2019-02-28T11:53:48.780Z,11.90
2019-02-28T11:56:17.983Z,11.90
2019-02-28T11:58:51.318Z,11.90
2019-02-28T12:01:18.003Z,12.00
2019-02-28T12:03:47.185Z,12.00
2019-02-28T12:06:16.342Z,12.00
2019-02-28T12:08:45.770Z,12.00
2019-02-28T12:11:16.858Z,12.10
2019-02-28T12:13:45.995Z,12.00
2019-02-28T12:16:16.259Z,12.10
2019-02-28T12:18:46.014Z,12.20
2019-02-28T12:21:15.181Z,12.20
2019-02-28T12:23:44.341Z,12.20
2019-02-28T12:26:14.317Z,12.20
2019-02-28T12:28:45.266Z,12.20
2019-02-28T12:31:14.408Z,12.20
2019-02-28T12:33:43.554Z,12.20
2019-02-28T12:36:14.458Z,12.20
2019-02-28T12:38:44.515Z,12.30
2019-02-28T12:41:13.798Z,12.40
2019-02-28T12:43:43.021Z,12.40
2019-02-28T12:46:12.289Z,12.50
2019-02-28T12:48:41.532Z,12.60
2019-02-28T12:51:10.750Z,12.60
2019-02-28T12:53:39.915Z,12.70
2019-02-28T12:56:11.196Z,12.70
2019-02-28T12:58:41.664Z,12.70
2019-02-28T13:01:10.813Z,12.70
2019-02-28T13:03:40.046Z,12.70
2019-02-28T13:06:09.203Z,12.90
2019-02-28T13:08:41.337Z,13.00
2019-02-28T13:11:09.303Z,13.10
2019-02-28T13:13:38.476Z,13.20
2019-02-28T13:16:07.627Z,13.30
2019-02-28T13:18:39.539Z,13.40
2019-02-28T13:21:10.692Z,13.50
2019-02-28T13:23:39.422Z,13.50
2019-02-28T13:26:08.760Z,13.50
2019-02-28T13:28:37.928Z,13.50
2019-02-28T13:31:07.171Z,13.50
2019-02-28T13:33:36.444Z,13.50
2019-02-28T13:36:05.663Z,13.60
2019-02-28T13:38:34.814Z,13.60
2019-02-28T13:41:03.989Z,13.60
2019-02-28T13:43:33.230Z,13.60
2019-02-28T13:46:02.385Z,13.70
2019-02-28T13:48:33.932Z,13.60
2019-02-28T13:51:08.165Z,13.60
2019-02-28T13:53:35.083Z,13.50
2019-02-28T13:56:05.097Z,13.50
2019-02-28T13:58:34.581Z,13.40
2019-02-28T14:01:03.739Z,13.40
2019-02-28T14:03:32.900Z,13.40
2019-02-28T14:06:02.070Z,13.30
2019-02-28T14:08:31.274Z,13.30
2019-02-28T14:11:00.515Z,13.30
2019-02-28T14:13:34.743Z,13.30
2019-02-28T14:16:01.499Z,13.30
2019-02-28T14:18:30.640Z,13.40
2019-02-28T14:21:02.925Z,13.40
2019-02-28T14:23:30.664Z,13.40
2019-02-28T14:25:59.814Z,13.40
2019-02-28T14:28:28.981Z,13.30
2019-02-28T14:30:58.761Z,13.10
2019-02-28T14:33:28.131Z,13.10
2019-02-28T14:35:57.268Z,13.00
2019-02-28T14:38:29.645Z,12.90
2019-02-28T14:40:59.300Z,12.80
2019-02-28T14:43:28.240Z,12.70
2019-02-28T14:45:57.396Z,12.50
2019-02-28T14:48:29.188Z,12.50
2019-02-28T14:50:58.917Z,12.40
2019-02-28T14:53:28.244Z,12.40
2019-02-28T14:55:57.398Z,12.30
2019-02-28T14:58:26.625Z,12.20
2019-02-28T15:00:55.855Z,12.10
2019-02-28T15:03:25.020Z,12.00
2019-02-28T15:05:55.556Z,11.90
2019-02-28T15:08:26.987Z,11.90
2019-02-28T15:10:55.965Z,11.90
2019-02-28T15:13:25.127Z,11.80
2019-02-28T15:15:54.411Z,11.70
2019-02-28T15:18:23.707Z,11.70
2019-02-28T15:20:52.935Z,11.70
2019-02-28T15:23:22.113Z,11.70
2019-02-28T15:25:54.201Z,11.60
2019-02-28T15:28:22.232Z,11.60
2019-02-28T15:30:51.403Z,11.50
2019-02-28T15:33:20.566Z,11.50
2019-02-28T15:35:50.498Z,11.40
2019-02-28T15:38:19.797Z,11.40
2019-02-28T15:40:49.420Z,11.20
2019-02-28T15:43:18.620Z,11.10
2019-02-28T15:45:47.835Z,11.10
2019-02-28T15:48:17.083Z,11.00
2019-02-28T15:50:51.274Z,10.90
2019-02-28T15:53:18.974Z,10.90
2019-02-28T15:55:48.127Z,10.80
2019-02-28T15:58:17.300Z,10.80
2019-02-28T16:00:47.444Z,10.70
2019-02-28T16:03:17.389Z,10.70
2019-02-28T16:05:46.862Z,10.60
2019-02-28T16:08:16.094Z,10.60
2019-02-28T16:10:53.215Z,10.50
2019-02-28T16:13:22.612Z,10.50
2019-02-28T16:15:58.479Z,10.50
2019-02-28T16:18:30.520Z,10.40
2019-02-28T16:20:59.764Z,10.30
2019-02-28T16:23:31.085Z,10.30
2019-02-28T16:26:00.114Z,10.30
2019-02-28T16:28:29.324Z,10.20
2019-02-28T16:30:58.625Z,10.20
2019-02-28T16:33:27.888Z,10.10
2019-02-28T16:35:57.276Z,10.00
2019-02-28T16:38:28.063Z,10.00
2019-02-28T16:40:57.694Z,9.90
2019-02-28T16:43:28.089Z,9.80
2019-02-28T16:45:57.368Z,9.70
2019-02-28T16:48:26.616Z,9.60
2019-02-28T16:50:56.959Z,9.50
2019-02-28T16:53:26.436Z,9.40
2019-02-28T16:55:55.632Z,9.30
2019-02-28T16:58:24.778Z,9.20
2019-02-28T17:00:53.965Z,9.10
2019-02-28T17:03:23.180Z,9.10
2019-02-28T17:05:52.342Z,9.00
2019-02-28T17:08:21.492Z,9.00
2019-02-28T17:10:50.836Z,8.90
2019-02-28T17:13:24.956Z,8.80
2019-02-28T17:16:01.192Z,8.80
2019-02-28T17:18:35.350Z,8.70
2019-02-28T17:21:04.495Z,8.60
2019-02-28T17:23:36.792Z,8.60
2019-02-28T17:26:04.607Z,8.50
2019-02-28T17:28:35.450Z,8.50
2019-02-28T17:31:22.909Z,8.40
2019-02-28T17:33:52.198Z,8.30
2019-02-28T17:36:21.365Z,8.30
2019-02-28T17:38:50.849Z,8.20
2019-02-28T17:41:20.000Z,8.10
2019-02-28T17:44:24.782Z,8.00
2019-02-28T17:47:00.488Z,8.00
2019-02-28T17:50:05.601Z,7.90
2019-02-28T17:52:52.636Z,7.90
2019-02-28T17:56:03.943Z,7.80
2019-02-28T17:59:08.541Z,7.80
2019-02-28T18:02:15.758Z,7.70
2019-02-28T18:04:58.555Z,7.70
2019-02-28T18:07:47.413Z,7.60
2019-02-28T18:10:55.770Z,7.60
2019-02-28T18:13:52.185Z,7.50
2019-02-28T18:16:29.276Z,7.50
2019-02-28T18:19:33.065Z,7.50
2019-02-28T18:22:08.239Z,7.50
2019-02-28T18:25:13.994Z,7.40
2019-02-28T18:27:52.520Z,7.30
2019-02-28T18:30:27.575Z,7.30
2019-02-28T18:32:58.075Z,7.20
2019-02-28T18:35:29.113Z,7.20
2019-02-28T18:38:00.802Z,7.20
2019-02-28T18:40:29.097Z,7.20
2019-02-28T18:42:58.314Z,7.10
2019-02-28T18:45:27.486Z,7.10
2019-02-28T18:47:56.629Z,7.10
2019-02-28T18:50:26.976Z,7.10
2019-02-28T18:52:56.230Z,7.00
2019-02-28T18:55:34.498Z,7.00
2019-02-28T18:57:56.323Z,7.00
2019-02-28T19:00:25.691Z,6.90
2019-02-28T19:02:55.098Z,6.90
2019-02-28T19:05:25.885Z,6.80
2019-02-28T19:07:55.358Z,6.80
2019-02-28T19:10:24.592Z,6.80
2019-02-28T19:12:54.711Z,6.80
2019-02-28T19:15:24.026Z,6.80
2019-02-28T19:17:53.455Z,6.70
2019-02-28T19:20:34.537Z,6.70
2019-02-28T19:23:03.747Z,6.70
2019-02-28T19:25:35.876Z,6.70
2019-02-28T19:28:05.146Z,6.70
2019-02-28T19:30:34.378Z,6.70
2019-02-28T19:33:03.593Z,6.60
2019-02-28T19:35:32.795Z,6.60
2019-02-28T19:38:02.152Z,6.60
2019-02-28T19:40:31.382Z,6.60
2019-02-28T19:43:00.631Z,6.60
2019-02-28T19:45:35.819Z,6.60
2019-02-28T19:48:04.977Z,6.60
2019-02-28T19:50:34.150Z,6.60
2019-02-28T19:53:03.386Z,6.50
2019-02-28T19:55:32.798Z,6.50
2019-02-28T19:58:02.082Z,6.50
2019-02-28T20:00:31.327Z,6.50
2019-02-28T20:03:00.568Z,6.50
2019-02-28T20:05:36.030Z,6.40
2019-02-28T20:08:05.345Z,6.40
2019-02-28T20:10:34.570Z,6.40
2019-02-28T20:13:04.889Z,6.40
2019-02-28T20:15:37.398Z,6.50
2019-02-28T20:18:06.659Z,6.50
2019-02-28T20:20:39.463Z,6.50
2019-02-28T20:23:12.066Z,6.50
2019-02-28T20:25:41.298Z,6.50
2019-02-28T20:28:10.475Z,6.50
2019-02-28T20:30:42.299Z,6.50
2019-02-28T20:33:14.679Z,6.50
2019-02-28T20:35:43.844Z,6.50
2019-02-28T20:38:15.253Z,6.50
2019-02-28T20:40:45.463Z,6.50
2019-02-28T20:43:14.608Z,6.50
2019-02-28T20:45:44.001Z,6.50
2019-02-28T20:48:13.647Z,6.60
2019-02-28T20:50:46.343Z,6.60
2019-02-28T20:53:15.632Z,6.60
2019-02-28T20:55:44.917Z,6.60
2019-02-28T20:58:16.012Z,6.50
2019-02-28T21:00:44.967Z,6.50
2019-02-28T21:03:14.199Z,6.50
2019-02-28T21:05:43.541Z,6.50
2019-02-28T21:08:12.819Z,6.50
2019-02-28T21:10:41.975Z,6.50
2019-02-28T21:13:12.304Z,6.40
2019-02-28T21:15:41.711Z,6.40
2019-02-28T21:18:12.203Z,6.40
2019-02-28T21:20:42.424Z,6.40
2019-02-28T21:23:11.699Z,6.40
2019-02-28T21:25:41.195Z,6.40
2019-02-28T21:28:10.421Z,6.40
2019-02-28T21:30:39.582Z,6.40
2019-02-28T21:33:08.893Z,6.40
2019-02-28T21:35:39.877Z,6.40
2019-02-28T21:38:09.126Z,6.40
2019-02-28T21:40:38.420Z,6.40
2019-02-28T21:43:07.651Z,6.40
2019-02-28T21:45:36.806Z,6.40
2019-02-28T21:48:05.966Z,6.40
2019-02-28T21:50:35.241Z,6.40
2019-02-28T21:53:04.395Z,6.40
2019-02-28T21:55:33.530Z,6.50
2019-02-28T21:58:02.814Z,6.40
2019-02-28T22:00:33.125Z,6.50
2019-02-28T22:03:02.444Z,6.50
2019-02-28T22:05:31.596Z,6.50
2019-02-28T22:08:00.762Z,6.50
2019-02-28T22:10:29.971Z,6.50
2019-02-28T22:12:59.771Z,6.50
2019-02-28T22:15:29.238Z,6.40
2019-02-28T22:17:58.459Z,6.50
2019-02-28T22:20:27.604Z,6.50
2019-02-28T22:22:56.879Z,6.40
2019-02-28T22:25:26.039Z,6.40
2019-02-28T22:27:55.198Z,6.40
2019-02-28T22:30:42.584Z,6.40
2019-02-28T22:33:46.037Z,6.40
2019-02-28T22:36:22.718Z,6.40
2019-02-28T22:38:51.866Z,6.40
2019-02-28T22:41:21.011Z,6.40
2019-02-28T22:43:50.242Z,6.50
2019-02-28T22:46:19.458Z,6.40
2019-02-28T22:48:48.606Z,6.40
2019-02-28T22:51:17.742Z,6.40
2019-02-28T22:53:46.896Z,6.40
2019-02-28T22:56:16.067Z,6.40
2019-02-28T22:58:45.282Z,6.40
2019-02-28T23:01:19.453Z,6.40
2019-02-28T23:03:48.852Z,6.30
2019-02-28T23:06:18.008Z,6.30
2019-02-28T23:08:47.207Z,6.30
2019-02-28T23:11:16.363Z,6.30
2019-02-28T23:13:45.526Z,6.30
2019-02-28T23:16:14.752Z,6.40
2019-02-28T23:18:43.896Z,6.40
2019-02-28T23:21:13.157Z,6.30
2019-02-28T23:23:42.366Z,6.30
2019-02-28T23:26:13.074Z,6.30
2019-02-28T23:28:48.312Z,6.30
2019-02-28T23:31:20.726Z,6.30
2019-02-28T23:33:49.861Z,6.30
2019-02-28T23:36:19.074Z,6.20
2019-02-28T23:38:48.888Z,6.20
2019-02-28T23:41:18.055Z,6.20
2019-02-28T23:43:47.205Z,6.20
2019-02-28T23:46:16.705Z,6.20
2019-02-28T23:48:47.167Z,6.20
2019-02-28T23:51:16.381Z,6.20
2019-02-28T23:53:45.614Z,6.10
2019-02-28T23:56:14.763Z,6.20
2019-02-28T23:58:43.908Z,6.20
